createdAt,value
2023-09-10T00:01:40.175Z,22.75
2023-09-10T00:04:08.098Z,22.73
2023-09-10T00:06:36.072Z,22.72
2023-09-10T00:09:04.733Z,22.65
2023-09-10T00:11:32.424Z,22.67
2023-09-10T00:14:00.076Z,22.59
2023-09-10T00:16:27.771Z,22.62
2023-09-10T00:18:55.458Z,22.63
2023-09-10T00:21:23.178Z,22.57
2023-09-10T00:23:50.795Z,22.58
2023-09-10T00:26:18.481Z,22.58
2023-09-10T00:28:47.188Z,22.57
2023-09-10T00:31:14.912Z,22.50
2023-09-10T00:33:42.572Z,22.49
2023-09-10T00:36:10.600Z,22.40
2023-09-10T00:38:39.017Z,22.35
2023-09-10T00:41:08.893Z,22.36
2023-09-10T00:43:37.233Z,22.29
2023-09-10T00:46:05.324Z,22.29
2023-09-10T00:48:38.300Z,22.27
2023-09-10T00:51:06.590Z,22.22
2023-09-10T00:53:34.366Z,22.21
2023-09-10T00:56:02.465Z,22.20
2023-09-10T00:58:30.316Z,22.15
2023-09-10T01:00:59.591Z,22.17
2023-09-10T01:03:31.916Z,22.12
2023-09-10T01:06:00.515Z,22.06
2023-09-10T01:08:28.322Z,22.05
2023-09-10T01:11:20.753Z,22.08
2023-09-10T01:14:06.434Z,22.03
2023-09-10T01:17:06.426Z,22.01
2023-09-10T01:20:12.640Z,22.04
2023-09-10T01:22:44.597Z,22.01
2023-09-10T01:25:13.000Z,22.01
2023-09-10T01:27:40.651Z,21.98
2023-09-10T01:30:10.933Z,21.97
2023-09-10T01:32:49.919Z,21.95
2023-09-10T01:35:36.418Z,22.01
2023-09-10T01:38:13.808Z,22.01
2023-09-10T01:41:04.164Z,22.00
2023-09-10T01:43:34.253Z,22.02
2023-09-10T01:46:06.600Z,21.98
2023-09-10T01:48:34.593Z,21.97
2023-09-10T01:51:02.337Z,21.91
2023-09-10T01:53:30.385Z,21.92
2023-09-10T01:55:58.116Z,21.91
2023-09-10T01:58:26.419Z,21.91
2023-09-10T02:00:54.140Z,21.95
2023-09-10T02:03:21.933Z,21.80
2023-09-10T02:05:49.668Z,21.79
2023-09-10T02:08:17.416Z,21.79
2023-09-10T02:10:45.709Z,21.77
2023-09-10T02:13:13.480Z,21.75
2023-09-10T02:15:41.283Z,21.73
2023-09-10T02:18:09.042Z,21.79
2023-09-10T02:20:37.557Z,21.82
2023-09-10T02:23:05.801Z,21.79
2023-09-10T02:25:34.228Z,21.74
2023-09-10T02:28:03.535Z,21.70
2023-09-10T02:30:31.419Z,21.72
2023-09-10T02:32:59.201Z,21.60
2023-09-10T02:35:26.902Z,21.47
2023-09-10T02:37:54.807Z,21.53
2023-09-10T02:40:22.681Z,21.41
2023-09-10T02:42:50.444Z,21.42
2023-09-10T02:45:18.499Z,21.43
2023-09-10T02:47:51.892Z,21.39
2023-09-10T02:50:19.639Z,21.36
2023-09-10T02:52:47.345Z,21.36
2023-09-10T02:55:17.965Z,21.38
2023-09-10T02:57:45.641Z,21.34
2023-09-10T03:00:14.182Z,21.24
2023-09-10T03:02:42.058Z,21.29
2023-09-10T03:05:09.949Z,21.26
2023-09-10T03:07:37.659Z,21.21
2023-09-10T03:10:06.050Z,21.17
2023-09-10T03:12:33.943Z,21.13
2023-09-10T03:15:01.848Z,21.11
2023-09-10T03:17:30.569Z,21.06
2023-09-10T03:19:59.679Z,21.01
2023-09-10T03:22:27.534Z,21.01
2023-09-10T03:24:55.367Z,21.02
2023-09-10T03:27:23.097Z,21.00
2023-09-10T03:29:51.185Z,20.99
2023-09-10T03:32:20.868Z,20.99
2023-09-10T03:34:50.920Z,21.01
2023-09-10T03:37:18.699Z,21.01
2023-09-10T03:39:46.555Z,20.98
2023-09-10T03:42:14.457Z,21.00
2023-09-10T03:44:42.229Z,21.00
2023-09-10T03:47:10.117Z,20.91
2023-09-10T03:49:38.406Z,20.81
2023-09-10T03:52:20.270Z,20.78
2023-09-10T03:54:49.191Z,20.67
2023-09-10T03:57:16.965Z,20.67
2023-09-10T03:59:44.965Z,20.65
2023-09-10T04:02:13.057Z,20.64
2023-09-10T04:04:42.737Z,20.60
2023-09-10T04:07:10.600Z,20.59
2023-09-10T04:09:38.731Z,20.51
2023-09-10T04:12:06.708Z,20.44
2023-09-10T04:14:34.449Z,20.44
2023-09-10T04:17:02.381Z,20.39
2023-09-10T04:19:30.161Z,20.37
2023-09-10T04:21:57.944Z,20.36
2023-09-10T04:24:25.791Z,20.33
2023-09-10T04:26:53.436Z,20.38
2023-09-10T04:29:23.173Z,20.45
2023-09-10T04:31:51.229Z,20.39
2023-09-10T04:34:19.042Z,20.41
2023-09-10T04:36:49.396Z,20.36
2023-09-10T04:39:20.161Z,20.39
2023-09-10T04:41:48.140Z,20.48
2023-09-10T04:44:18.115Z,20.46
2023-09-10T04:46:46.877Z,20.50
2023-09-10T04:49:14.721Z,20.46
2023-09-10T04:51:42.390Z,20.51
2023-09-10T04:54:10.208Z,20.44
2023-09-10T04:56:37.861Z,20.45
2023-09-10T04:59:06.718Z,20.41
2023-09-10T05:01:34.822Z,20.45
2023-09-10T05:04:04.406Z,20.40
2023-09-10T05:06:32.228Z,20.43
2023-09-10T05:09:00.266Z,20.44
2023-09-10T05:11:28.090Z,20.46
2023-09-10T05:13:55.921Z,20.48
2023-09-10T05:16:24.066Z,20.38
2023-09-10T05:18:52.469Z,20.38
2023-09-10T05:21:21.227Z,20.37
2023-09-10T05:23:49.197Z,20.36
2023-09-10T05:26:17.300Z,20.38
2023-09-10T05:28:46.995Z,20.47
2023-09-10T05:31:15.393Z,20.34
2023-09-10T05:33:43.950Z,20.28
2023-09-10T05:36:11.940Z,20.22
2023-09-10T05:38:39.746Z,20.26
2023-09-10T05:41:08.904Z,20.37
2023-09-10T05:43:36.850Z,20.43
2023-09-10T05:46:07.305Z,20.51
2023-09-10T05:48:35.938Z,20.47
2023-09-10T05:51:04.183Z,20.53
2023-09-10T05:53:32.108Z,20.57
2023-09-10T05:56:03.653Z,20.50
2023-09-10T05:58:31.772Z,20.58
2023-09-10T06:00:59.467Z,20.54
2023-09-10T06:03:27.409Z,20.66
2023-09-10T06:05:58.899Z,20.74
2023-09-10T06:08:32.406Z,20.88
2023-09-10T06:11:00.429Z,20.88
2023-09-10T06:13:29.396Z,20.96
2023-09-10T06:15:59.171Z,21.06
2023-09-10T06:18:27.343Z,21.13
2023-09-10T06:20:55.103Z,21.21
2023-09-10T06:23:22.927Z,21.31
2023-09-10T06:25:51.783Z,21.28
2023-09-10T06:28:19.668Z,21.33
2023-09-10T06:30:47.593Z,21.35
2023-09-10T06:33:15.910Z,21.42
2023-09-10T06:35:44.496Z,21.48
2023-09-10T06:38:13.016Z,21.55
2023-09-10T06:40:40.873Z,21.64
2023-09-10T06:43:09.931Z,21.75
2023-09-10T06:45:55.744Z,21.97
2023-09-10T06:48:23.457Z,22.15
2023-09-10T06:50:51.113Z,22.35
2023-09-10T06:53:18.866Z,22.49
2023-09-10T06:55:46.711Z,22.68
2023-09-10T06:58:18.506Z,22.86
2023-09-10T07:00:46.256Z,22.92
2023-09-10T07:03:14.645Z,23.10
2023-09-10T07:05:43.998Z,23.23
2023-09-10T07:08:12.389Z,23.33
2023-09-10T07:10:40.914Z,23.44
2023-09-10T07:13:09.067Z,23.52
2023-09-10T07:15:37.871Z,23.69
2023-09-10T07:18:06.184Z,23.76
2023-09-10T07:20:34.019Z,23.78
2023-09-10T07:23:01.735Z,23.89
2023-09-10T07:25:30.193Z,24.07
2023-09-10T07:27:57.998Z,24.17
2023-09-10T07:30:25.774Z,24.37
2023-09-10T07:32:53.606Z,24.50
2023-09-10T07:35:21.511Z,24.66
2023-09-10T07:37:49.343Z,24.76
2023-09-10T07:40:17.277Z,24.93
2023-09-10T07:42:45.368Z,25.03
2023-09-10T07:45:15.243Z,25.08
2023-09-10T07:47:43.338Z,25.20
2023-09-10T07:50:11.191Z,25.25
2023-09-10T07:52:38.960Z,25.40
2023-09-10T07:55:07.304Z,25.53
2023-09-10T07:57:35.099Z,25.67
2023-09-10T08:00:03.336Z,25.77
2023-09-10T08:02:39.266Z,25.93
2023-09-10T08:05:07.935Z,25.93
2023-09-10T08:07:35.773Z,26.02
2023-09-10T08:10:04.086Z,26.12
2023-09-10T08:12:31.996Z,26.26
2023-09-10T08:14:59.654Z,26.40
2023-09-10T08:17:27.479Z,26.59
2023-09-10T08:19:55.166Z,26.64
2023-09-10T08:22:22.912Z,26.71
2023-09-10T08:24:51.544Z,26.76
2023-09-10T08:27:19.242Z,26.89
2023-09-10T08:29:46.884Z,27.06
2023-09-10T08:32:17.243Z,27.23
2023-09-10T08:34:45.523Z,27.36
2023-09-10T08:37:13.329Z,27.47
2023-09-10T08:39:41.113Z,27.48
2023-09-10T08:42:40.546Z,27.56
2023-09-10T08:45:11.447Z,27.68
2023-09-10T08:47:42.128Z,27.81
2023-09-10T08:50:15.237Z,27.95
2023-09-10T08:52:49.723Z,28.14
2023-09-10T08:55:17.853Z,28.22
2023-09-10T08:57:46.978Z,28.35
2023-09-10T09:00:15.067Z,28.44
2023-09-10T09:02:47.317Z,28.47
2023-09-10T09:05:15.156Z,28.50
2023-09-10T09:07:52.558Z,28.59
2023-09-10T09:10:26.332Z,28.73
2023-09-10T09:12:59.846Z,28.81
2023-09-10T09:15:28.100Z,28.91
2023-09-10T09:17:58.013Z,29.05
2023-09-10T09:20:27.081Z,29.21
2023-09-10T09:23:05.527Z,29.29
2023-09-10T09:25:38.234Z,29.26
2023-09-10T09:28:06.876Z,29.46
2023-09-10T09:30:34.697Z,29.53
2023-09-10T09:33:02.884Z,29.60
2023-09-10T09:35:30.609Z,29.70
2023-09-10T09:37:59.012Z,29.82
2023-09-10T09:40:26.685Z,29.78
2023-09-10T09:43:05.331Z,29.82
2023-09-10T09:45:41.138Z,29.86
2023-09-10T09:48:09.854Z,30.06
2023-09-10T09:50:37.622Z,30.28
2023-09-10T09:53:05.564Z,30.40
2023-09-10T09:55:33.621Z,30.33
2023-09-10T09:58:01.389Z,30.51
2023-09-10T10:00:29.146Z,30.70
2023-09-10T10:02:57.318Z,30.63
2023-09-10T10:05:25.045Z,30.72
2023-09-10T10:07:53.852Z,30.82
2023-09-10T10:10:21.680Z,30.87
2023-09-10T10:12:52.261Z,30.88
2023-09-10T10:15:21.293Z,30.97
2023-09-10T10:17:50.671Z,31.09
2023-09-10T10:20:20.177Z,31.12
2023-09-10T10:22:48.131Z,31.21
2023-09-10T10:25:15.774Z,31.16
2023-09-10T10:27:45.078Z,31.33
2023-09-10T10:30:13.803Z,31.26
2023-09-10T10:32:46.092Z,31.50
2023-09-10T10:35:14.560Z,31.59
2023-09-10T10:37:53.139Z,31.68
2023-09-10T10:40:29.625Z,31.75
2023-09-10T10:43:25.459Z,31.70
2023-09-10T10:45:57.670Z,31.71
2023-09-10T10:48:34.229Z,31.79
2023-09-10T10:51:04.331Z,31.82
2023-09-10T10:53:34.691Z,31.99
2023-09-10T10:56:05.230Z,32.07
2023-09-10T10:58:36.063Z,32.16
2023-09-10T11:01:04.137Z,32.25
2023-09-10T11:03:33.970Z,32.32
2023-09-10T11:06:08.368Z,32.50
2023-09-10T11:08:49.738Z,32.49
2023-09-10T11:11:46.351Z,32.59
2023-09-10T11:14:14.085Z,32.73
2023-09-10T11:16:44.296Z,32.84
2023-09-10T11:19:50.965Z,32.90
2023-09-10T11:22:18.762Z,32.97
2023-09-10T11:25:08.036Z,33.01
2023-09-10T11:27:36.014Z,32.87
2023-09-10T11:30:14.979Z,32.97
2023-09-10T11:32:47.613Z,33.11
2023-09-10T11:35:18.671Z,33.27
2023-09-10T11:37:51.896Z,33.41
2023-09-10T11:40:21.306Z,33.46
2023-09-10T11:42:50.691Z,33.43
2023-09-10T11:45:20.414Z,33.38
2023-09-10T11:47:51.108Z,33.48
2023-09-10T11:50:25.600Z,33.52
2023-09-10T11:52:53.712Z,33.45
2023-09-10T11:55:21.941Z,33.48
2023-09-10T11:57:51.465Z,33.50
2023-09-10T12:00:19.607Z,33.45
2023-09-10T12:02:47.240Z,33.55
2023-09-10T12:05:15.042Z,33.62
2023-09-10T12:07:44.571Z,33.62
2023-09-10T12:10:13.740Z,33.57
2023-09-10T12:12:44.354Z,33.33
2023-09-10T12:15:12.769Z,33.35
2023-09-10T12:17:41.281Z,33.45
2023-09-10T12:20:10.633Z,33.57
2023-09-10T12:22:38.414Z,33.44
2023-09-10T12:25:08.703Z,33.49
2023-09-10T12:27:37.331Z,33.55
2023-09-10T12:30:06.018Z,33.66
2023-09-10T12:32:33.974Z,33.70
2023-09-10T12:35:01.932Z,33.65
2023-09-10T12:37:29.740Z,33.59
2023-09-10T12:39:57.446Z,33.69
2023-09-10T12:42:25.604Z,33.81
2023-09-10T12:44:53.319Z,33.93
2023-09-10T12:47:21.065Z,34.07
2023-09-10T12:49:48.865Z,34.32
2023-09-10T12:52:16.734Z,34.64
2023-09-10T12:54:44.426Z,34.99
2023-09-10T12:57:13.292Z,35.15
2023-09-10T12:59:41.150Z,35.52
2023-09-10T13:02:12.042Z,35.89
2023-09-10T13:04:39.835Z,36.20
2023-09-10T13:07:07.666Z,36.39
2023-09-10T13:09:35.480Z,36.82
2023-09-10T13:12:03.778Z,37.50
2023-09-10T13:14:31.560Z,37.93
2023-09-10T13:16:59.657Z,38.45
2023-09-10T13:19:27.404Z,38.89
2023-09-10T13:21:55.141Z,39.35
2023-09-10T13:24:22.962Z,39.78
2023-09-10T13:26:50.997Z,39.88
2023-09-10T13:29:18.755Z,40.20
2023-09-10T13:31:46.477Z,40.17
2023-09-10T13:34:14.121Z,40.59
2023-09-10T13:36:41.891Z,40.46
2023-09-10T13:39:09.687Z,40.14
2023-09-10T13:41:37.466Z,40.42
2023-09-10T13:44:05.686Z,40.31
2023-09-10T13:46:33.562Z,40.24
2023-09-10T13:49:01.376Z,39.99
2023-09-10T13:51:29.075Z,39.08
2023-09-10T13:53:58.785Z,38.04
2023-09-10T13:56:28.240Z,37.11
2023-09-10T13:58:56.059Z,36.46
2023-09-10T14:01:23.765Z,35.86
2023-09-10T14:03:51.474Z,35.49
2023-09-10T14:06:19.199Z,35.13
2023-09-10T14:08:46.882Z,35.02
2023-09-10T14:11:15.033Z,34.95
2023-09-10T14:13:43.000Z,34.84
2023-09-10T14:16:11.370Z,34.81
2023-09-10T14:18:41.865Z,34.80
2023-09-10T14:21:11.099Z,34.69
2023-09-10T14:23:38.985Z,34.68
2023-09-10T14:26:06.981Z,34.54
2023-09-10T14:28:34.702Z,34.46
2023-09-10T14:31:02.366Z,34.54
2023-09-10T14:33:30.677Z,34.51
2023-09-10T14:35:59.067Z,34.41
2023-09-10T14:38:26.945Z,34.74
2023-09-10T14:40:54.648Z,35.37
2023-09-10T14:43:22.421Z,35.96
2023-09-10T14:45:50.237Z,36.43
2023-09-10T14:48:17.960Z,37.07
2023-09-10T14:50:45.698Z,37.53
2023-09-10T14:53:13.689Z,38.21
2023-09-10T14:55:41.679Z,39.21
2023-09-10T14:58:10.640Z,39.85
2023-09-10T15:00:40.864Z,40.61
2023-09-10T15:03:08.987Z,41.05
2023-09-10T15:05:36.834Z,41.10
2023-09-10T15:08:05.181Z,41.61
2023-09-10T15:10:33.060Z,41.78
2023-09-10T15:13:00.870Z,41.97
2023-09-10T15:15:29.801Z,41.96
2023-09-10T15:17:57.538Z,42.28
2023-09-10T15:20:25.398Z,42.28
2023-09-10T15:22:53.203Z,42.06
2023-09-10T15:25:21.102Z,41.45
2023-09-10T15:27:48.822Z,40.52
2023-09-10T15:30:16.482Z,39.24
2023-09-10T15:32:44.238Z,38.16
2023-09-10T15:35:11.943Z,37.17
2023-09-10T15:37:39.684Z,36.23
2023-09-10T15:40:08.375Z,35.72
2023-09-10T15:42:36.027Z,35.22
2023-09-10T15:45:05.090Z,34.79
2023-09-10T15:47:33.020Z,34.48
2023-09-10T15:50:01.594Z,34.21
2023-09-10T15:52:30.093Z,33.85
2023-09-10T15:54:57.843Z,33.60
2023-09-10T15:57:26.856Z,33.35
2023-09-10T15:59:54.542Z,33.33
2023-09-10T16:02:28.268Z,33.13
2023-09-10T16:04:56.367Z,32.85
2023-09-10T16:07:24.185Z,32.75
2023-09-10T16:09:55.394Z,32.61
2023-09-10T16:12:23.138Z,32.58
2023-09-10T16:14:50.854Z,32.39
2023-09-10T16:17:18.632Z,32.25
2023-09-10T16:19:46.337Z,32.30
2023-09-10T16:22:20.924Z,32.14
2023-09-10T16:24:48.577Z,32.07
2023-09-10T16:27:16.244Z,31.97
2023-09-10T16:29:44.196Z,31.87
2023-09-10T16:32:11.895Z,31.83
2023-09-10T16:34:39.758Z,31.71
2023-09-10T16:37:07.564Z,31.60
2023-09-10T16:39:35.308Z,31.49
2023-09-10T16:42:04.704Z,31.42
2023-09-10T16:44:32.646Z,31.32
2023-09-10T16:47:00.396Z,31.23
2023-09-10T16:49:28.130Z,31.20
2023-09-10T16:51:55.810Z,31.15
2023-09-10T16:54:23.520Z,31.12
2023-09-10T16:56:51.217Z,31.03
2023-09-10T16:59:18.985Z,31.04
2023-09-10T17:01:46.634Z,30.86
2023-09-10T17:04:14.254Z,30.76
2023-09-10T17:06:43.735Z,30.71
2023-09-10T17:09:11.667Z,30.66
2023-09-10T17:11:39.322Z,30.64
2023-09-10T17:14:07.218Z,30.47
2023-09-10T17:16:34.862Z,30.42
2023-09-10T17:19:02.579Z,30.23
2023-09-10T17:21:30.364Z,30.09
2023-09-10T17:23:58.132Z,30.10
2023-09-10T17:26:29.375Z,29.86
2023-09-10T17:28:57.264Z,29.81
2023-09-10T17:31:25.227Z,29.72
2023-09-10T17:33:52.905Z,29.57
2023-09-10T17:36:20.557Z,29.50
2023-09-10T17:38:48.355Z,29.34
2023-09-10T17:41:16.248Z,29.22
2023-09-10T17:43:44.075Z,29.10
2023-09-10T17:46:11.806Z,29.02
2023-09-10T17:48:39.851Z,28.82
2023-09-10T17:51:08.072Z,28.72
2023-09-10T17:53:35.922Z,28.66
2023-09-10T17:56:03.720Z,28.50
2023-09-10T17:58:31.598Z,28.40
2023-09-10T18:00:59.235Z,28.23
2023-09-10T18:03:28.608Z,28.07
2023-09-10T18:05:56.473Z,27.98
2023-09-10T18:08:24.181Z,27.88
2023-09-10T18:10:55.008Z,27.77
2023-09-10T18:13:23.147Z,27.65
2023-09-10T18:15:50.897Z,27.54
2023-09-10T18:18:18.566Z,27.46
2023-09-10T18:20:46.340Z,27.33
2023-09-10T18:23:14.003Z,27.13
2023-09-10T18:25:41.737Z,27.02
2023-09-10T18:28:09.472Z,26.92
2023-09-10T18:30:39.737Z,26.92
2023-09-10T18:33:07.639Z,26.90
2023-09-10T18:35:35.505Z,26.91
2023-09-10T18:38:04.038Z,26.78
2023-09-10T18:40:31.972Z,26.68
2023-09-10T18:42:59.758Z,26.60
2023-09-10T18:45:28.048Z,26.58
2023-09-10T18:47:55.796Z,26.58
2023-09-10T18:50:23.601Z,26.54
2023-09-10T18:52:51.410Z,26.39
2023-09-10T18:55:19.435Z,26.48
2023-09-10T18:57:47.506Z,26.38
2023-09-10T19:00:15.713Z,26.43
2023-09-10T19:02:43.645Z,26.38
2023-09-10T19:05:11.893Z,26.35
2023-09-10T19:07:39.566Z,26.37
2023-09-10T19:10:07.622Z,26.35
2023-09-10T19:12:35.350Z,26.26
2023-09-10T19:15:03.127Z,26.22
2023-09-10T19:17:30.793Z,26.16
2023-09-10T19:19:58.686Z,26.06
2023-09-10T19:22:26.440Z,26.04
2023-09-10T19:24:54.171Z,25.97
2023-09-10T19:27:22.294Z,25.95
2023-09-10T19:29:50.083Z,25.97
2023-09-10T19:32:17.789Z,26.04
2023-09-10T19:34:45.628Z,26.06
2023-09-10T19:37:13.305Z,26.08
2023-09-10T19:39:41.059Z,26.04
2023-09-10T19:42:08.700Z,26.02
2023-09-10T19:44:37.892Z,25.92
2023-09-10T19:47:05.739Z,25.87
2023-09-10T19:49:35.146Z,25.80
2023-09-10T19:52:02.870Z,25.73
2023-09-10T19:54:30.524Z,25.71
2023-09-10T19:56:58.481Z,25.66
2023-09-10T19:59:26.164Z,25.60
2023-09-10T20:01:54.905Z,25.55
2023-09-10T20:04:22.654Z,25.52
2023-09-10T20:06:59.838Z,25.51
2023-09-10T20:09:28.246Z,25.50
2023-09-10T20:11:56.246Z,25.59
2023-09-10T20:14:26.109Z,25.59
2023-09-10T20:16:53.882Z,25.75
2023-09-10T20:19:21.582Z,25.82
2023-09-10T20:21:49.896Z,25.73
2023-09-10T20:24:18.796Z,25.72
2023-09-10T20:26:47.292Z,25.81
2023-09-10T20:29:14.950Z,26.01
2023-09-10T20:31:42.787Z,26.19
2023-09-10T20:34:10.404Z,26.28
2023-09-10T20:36:38.234Z,26.21
2023-09-10T20:39:06.271Z,26.09
2023-09-10T20:41:34.010Z,25.94
2023-09-10T20:44:01.720Z,25.92
2023-09-10T20:46:29.543Z,25.85
2023-09-10T20:48:57.184Z,25.77
2023-09-10T20:51:32.646Z,25.71
2023-09-10T20:54:00.529Z,25.56
2023-09-10T20:56:28.180Z,25.55
2023-09-10T20:58:56.153Z,25.52
2023-09-10T21:01:23.923Z,25.48
2023-09-10T21:03:51.951Z,25.39
2023-09-10T21:06:20.481Z,25.36
2023-09-10T21:08:52.216Z,25.27
2023-09-10T21:11:20.184Z,25.22
2023-09-10T21:13:48.010Z,25.24
2023-09-10T21:16:17.898Z,25.08
2023-09-10T21:18:46.619Z,25.02
2023-09-10T21:21:15.906Z,25.01
2023-09-10T21:23:43.956Z,24.94
2023-09-10T21:26:11.922Z,24.93
2023-09-10T21:28:40.476Z,24.90
2023-09-10T21:31:08.588Z,24.82
2023-09-10T21:33:36.692Z,24.82
2023-09-10T21:36:10.636Z,24.75
2023-09-10T21:38:39.357Z,24.71
2023-09-10T21:41:07.299Z,24.69
2023-09-10T21:43:34.958Z,24.66
2023-09-10T21:46:07.517Z,24.64
2023-09-10T21:48:35.425Z,24.54
2023-09-10T21:51:03.096Z,24.51
2023-09-10T21:53:30.824Z,24.47
2023-09-10T21:55:58.540Z,24.42
2023-09-10T21:58:26.331Z,24.36
2023-09-10T22:00:54.050Z,24.26
2023-09-10T22:03:24.261Z,24.23
2023-09-10T22:05:52.145Z,24.19
2023-09-10T22:08:20.089Z,24.07
2023-09-10T22:10:47.732Z,23.97
2023-09-10T22:13:19.224Z,23.90
2023-09-10T22:15:47.138Z,23.84
2023-09-10T22:18:14.882Z,23.76
2023-09-10T22:20:42.707Z,23.72
2023-09-10T22:23:10.461Z,23.73
2023-09-10T22:25:38.628Z,23.76
2023-09-10T22:28:06.690Z,23.65
2023-09-10T22:30:34.658Z,23.65
2023-09-10T22:33:02.397Z,23.58
2023-09-10T22:35:30.327Z,23.50
2023-09-10T22:37:58.992Z,23.50
2023-09-10T22:40:26.643Z,23.51
2023-09-10T22:42:54.344Z,23.41
2023-09-10T22:45:21.990Z,23.41
2023-09-10T22:47:53.717Z,23.32
2023-09-10T22:50:22.110Z,23.25
2023-09-10T22:52:50.073Z,23.26
2023-09-10T22:55:17.722Z,23.25
2023-09-10T22:57:45.409Z,23.25
2023-09-10T23:00:13.989Z,23.13
2023-09-10T23:02:41.826Z,23.05
2023-09-10T23:05:09.845Z,23.12
2023-09-10T23:07:37.588Z,23.09
2023-09-10T23:10:16.401Z,23.05
2023-09-10T23:12:53.459Z,22.99
2023-09-10T23:15:22.008Z,22.99
2023-09-10T23:17:49.703Z,22.99
2023-09-10T23:20:17.964Z,23.08
2023-09-10T23:22:45.669Z,23.05
2023-09-10T23:25:13.451Z,23.06
2023-09-10T23:27:44.288Z,23.13
2023-09-10T23:30:12.646Z,23.14
2023-09-10T23:32:40.591Z,23.10
2023-09-10T23:35:09.245Z,23.07
2023-09-10T23:37:36.960Z,22.95
2023-09-10T23:40:05.548Z,22.96
2023-09-10T23:42:35.340Z,22.94
2023-09-10T23:45:03.124Z,22.94
2023-09-10T23:47:30.843Z,22.91
2023-09-10T23:49:58.638Z,22.91
2023-09-10T23:52:26.303Z,22.80
2023-09-10T23:54:54.225Z,22.78
2023-09-10T23:57:21.973Z,22.70
2023-09-10T23:59:49.657Z,22.69
